sensor_id;sensor_type;location;lat;lon;timestamp;P1;P2;P0
63305;PMS5003;50735;52.060;1.248;2024-02-28T00:01:55;27;12;
63305;PMS5003;50735;52.060;1.248;2024-02-28T00:04:27;13;13;
63305;PMS5003;50735;52.060;1.248;2024-02-28T00:06:59;15;12;
63305;PMS5003;50735;52.060;1.248;2024-02-28T00:09:31;14;12;
63305;PMS5003;50735;52.060;1.248;2024-02-28T00:12:03;15;12;
63305;PMS5003;50735;52.060;1.248;2024-02-28T00:14:35;13;12;
63305;PMS5003;50735;52.060;1.248;2024-02-28T00:17:07;21;17;
63305;PMS5003;50735;52.060;1.248;2024-02-28T00:19:38;17;14;
63305;PMS5003;50735;52.060;1.248;2024-02-28T00:22:10;14;12;
63305;PMS5003;50735;52.060;1.248;2024-02-28T00:24:42;10;10;
63305;PMS5003;50735;52.060;1.248;2024-02-28T00:27:13;13;11;
63305;PMS5003;50735;52.060;1.248;2024-02-28T00:29:45;13;13;
63305;PMS5003;50735;52.060;1.248;2024-02-28T00:32:17;15;13;
63305;PMS5003;50735;52.060;1.248;2024-02-28T00:34:49;17;14;
63305;PMS5003;50735;52.060;1.248;2024-02-28T00:37:21;16;13;
63305;PMS5003;50735;52.060;1.248;2024-02-28T00:39:53;10;10;
63305;PMS5003;50735;52.060;1.248;2024-02-28T00:42:25;15;14;
63305;PMS5003;50735;52.060;1.248;2024-02-28T00:44:57;17;14;
63305;PMS5003;50735;52.060;1.248;2024-02-28T00:47:29;24;13;
63305;PMS5003;50735;52.060;1.248;2024-02-28T00:50:01;19;13;
63305;PMS5003;50735;52.060;1.248;2024-02-28T00:52:33;14;13;
63305;PMS5003;50735;52.060;1.248;2024-02-28T00:55:05;13;11;
63305;PMS5003;50735;52.060;1.248;2024-02-28T00:57:37;26;12;
63305;PMS5003;50735;52.060;1.248;2024-02-28T01:00:10;16;14;
63305;PMS5003;50735;52.060;1.248;2024-02-28T01:02:43;24;13;
63305;PMS5003;50735;52.060;1.248;2024-02-28T01:05:14;16;14;
63305;PMS5003;50735;52.060;1.248;2024-02-28T01:07:46;15;12;
63305;PMS5003;50735;52.060;1.248;2024-02-28T01:10:18;14;14;
63305;PMS5003;50735;52.060;1.248;2024-02-28T01:12:50;20;12;
63305;PMS5003;50735;52.060;1.248;2024-02-28T01:15:21;9;9;
63305;PMS5003;50735;52.060;1.248;2024-02-28T01:17:53;18;15;
63305;PMS5003;50735;52.060;1.248;2024-02-28T01:20:26;11;11;
63305;PMS5003;50735;52.060;1.248;2024-02-28T01:22:58;12;12;
63305;PMS5003;50735;52.060;1.248;2024-02-28T01:25:29;18;12;
63305;PMS5003;50735;52.060;1.248;2024-02-28T01:28:01;16;13;
63305;PMS5003;50735;52.060;1.248;2024-02-28T01:30:36;12;10;
63305;PMS5003;50735;52.060;1.248;2024-02-28T01:33:08;12;12;
63305;PMS5003;50735;52.060;1.248;2024-02-28T01:35:40;15;13;
63305;PMS5003;50735;52.060;1.248;2024-02-28T01:38:11;15;12;
63305;PMS5003;50735;52.060;1.248;2024-02-28T01:40:44;14;14;
63305;PMS5003;50735;52.060;1.248;2024-02-28T01:43:16;14;12;
63305;PMS5003;50735;52.060;1.248;2024-02-28T01:45:49;18;12;
63305;PMS5003;50735;52.060;1.248;2024-02-28T01:48:21;23;14;
63305;PMS5003;50735;52.060;1.248;2024-02-28T01:50:53;14;14;
63305;PMS5003;50735;52.060;1.248;2024-02-28T01:53:25;14;14;
63305;PMS5003;50735;52.060;1.248;2024-02-28T01:55:57;14;13;
63305;PMS5003;50735;52.060;1.248;2024-02-28T01:58:30;11;11;
63305;PMS5003;50735;52.060;1.248;2024-02-28T02:01:02;20;11;
63305;PMS5003;50735;52.060;1.248;2024-02-28T02:03:34;21;13;
63305;PMS5003;50735;52.060;1.248;2024-02-28T02:06:06;12;11;
63305;PMS5003;50735;52.060;1.248;2024-02-28T02:08:39;15;13;
63305;PMS5003;50735;52.060;1.248;2024-02-28T02:11:12;17;12;
63305;PMS5003;50735;52.060;1.248;2024-02-28T02:13:48;14;14;
63305;PMS5003;50735;52.060;1.248;2024-02-28T02:16:20;14;12;
63305;PMS5003;50735;52.060;1.248;2024-02-28T02:18:52;14;11;
63305;PMS5003;50735;52.060;1.248;2024-02-28T02:21:26;15;12;
63305;PMS5003;50735;52.060;1.248;2024-02-28T02:24:02;15;14;
63305;PMS5003;50735;52.060;1.248;2024-02-28T02:26:34;27;13;
63305;PMS5003;50735;52.060;1.248;2024-02-28T02:29:06;15;11;
63305;PMS5003;50735;52.060;1.248;2024-02-28T02:31:38;14;13;
63305;PMS5003;50735;52.060;1.248;2024-02-28T02:34:10;16;13;
63305;PMS5003;50735;52.060;1.248;2024-02-28T02:36:42;21;12;
63305;PMS5003;50735;52.060;1.248;2024-02-28T02:39:14;15;13;
63305;PMS5003;50735;52.060;1.248;2024-02-28T02:41:46;21;14;
63305;PMS5003;50735;52.060;1.248;2024-02-28T02:44:18;16;13;
63305;PMS5003;50735;52.060;1.248;2024-02-28T02:46:50;13;11;
63305;PMS5003;50735;52.060;1.248;2024-02-28T02:49:21;15;13;
63305;PMS5003;50735;52.060;1.248;2024-02-28T02:51:53;16;15;
63305;PMS5003;50735;52.060;1.248;2024-02-28T02:54:25;18;16;
63305;PMS5003;50735;52.060;1.248;2024-02-28T02:56:57;15;15;
63305;PMS5003;50735;52.060;1.248;2024-02-28T02:59:29;14;12;
63305;PMS5003;50735;52.060;1.248;2024-02-28T03:02:01;13;11;
63305;PMS5003;50735;52.060;1.248;2024-02-28T03:04:32;17;16;
63305;PMS5003;50735;52.060;1.248;2024-02-28T03:07:04;15;12;
63305;PMS5003;50735;52.060;1.248;2024-02-28T03:09:36;15;14;
63305;PMS5003;50735;52.060;1.248;2024-02-28T03:12:07;16;14;
63305;PMS5003;50735;52.060;1.248;2024-02-28T03:14:39;14;13;
63305;PMS5003;50735;52.060;1.248;2024-02-28T03:17:11;16;15;
63305;PMS5003;50735;52.060;1.248;2024-02-28T03:19:43;15;14;
63305;PMS5003;50735;52.060;1.248;2024-02-28T03:22:15;16;13;
63305;PMS5003;50735;52.060;1.248;2024-02-28T03:24:46;14;13;
63305;PMS5003;50735;52.060;1.248;2024-02-28T03:27:18;16;13;
63305;PMS5003;50735;52.060;1.248;2024-02-28T03:29:51;26;14;
63305;PMS5003;50735;52.060;1.248;2024-02-28T03:32:22;30;16;
63305;PMS5003;50735;52.060;1.248;2024-02-28T03:34:54;15;12;
63305;PMS5003;50735;52.060;1.248;2024-02-28T03:37:26;16;15;
63305;PMS5003;50735;52.060;1.248;2024-02-28T03:39:58;13;12;
63305;PMS5003;50735;52.060;1.248;2024-02-28T03:42:30;13;13;
63305;PMS5003;50735;52.060;1.248;2024-02-28T03:45:02;21;15;
63305;PMS5003;50735;52.060;1.248;2024-02-28T03:47:35;14;13;
63305;PMS5003;50735;52.060;1.248;2024-02-28T03:50:07;14;14;
63305;PMS5003;50735;52.060;1.248;2024-02-28T03:52:39;16;13;
63305;PMS5003;50735;52.060;1.248;2024-02-28T03:55:11;16;14;
63305;PMS5003;50735;52.060;1.248;2024-02-28T03:57:46;14;14;
63305;PMS5003;50735;52.060;1.248;2024-02-28T04:00:18;21;15;
63305;PMS5003;50735;52.060;1.248;2024-02-28T04:02:51;16;16;
63305;PMS5003;50735;52.060;1.248;2024-02-28T04:05:23;13;11;
63305;PMS5003;50735;52.060;1.248;2024-02-28T04:07:55;19;15;
63305;PMS5003;50735;52.060;1.248;2024-02-28T04:10:27;16;13;
63305;PMS5003;50735;52.060;1.248;2024-02-28T04:12:58;27;18;
63305;PMS5003;50735;52.060;1.248;2024-02-28T04:15:30;19;14;
63305;PMS5003;50735;52.060;1.248;2024-02-28T04:18:04;15;14;
63305;PMS5003;50735;52.060;1.248;2024-02-28T04:20:36;16;14;
63305;PMS5003;50735;52.060;1.248;2024-02-28T04:23:08;14;13;
63305;PMS5003;50735;52.060;1.248;2024-02-28T04:25:40;14;13;
63305;PMS5003;50735;52.060;1.248;2024-02-28T04:28:11;20;15;
63305;PMS5003;50735;52.060;1.248;2024-02-28T04:30:43;16;12;
63305;PMS5003;50735;52.060;1.248;2024-02-28T04:33:15;22;18;
63305;PMS5003;50735;52.060;1.248;2024-02-28T04:35:47;28;16;
63305;PMS5003;50735;52.060;1.248;2024-02-28T04:38:19;16;15;
63305;PMS5003;50735;52.060;1.248;2024-02-28T04:40:51;15;12;
63305;PMS5003;50735;52.060;1.248;2024-02-28T04:43:23;16;16;
63305;PMS5003;50735;52.060;1.248;2024-02-28T04:45:55;21;19;
63305;PMS5003;50735;52.060;1.248;2024-02-28T04:48:26;20;20;
63305;PMS5003;50735;52.060;1.248;2024-02-28T04:50:59;19;16;
63305;PMS5003;50735;52.060;1.248;2024-02-28T04:53:32;20;18;
63305;PMS5003;50735;52.060;1.248;2024-02-28T04:56:04;18;18;
63305;PMS5003;50735;52.060;1.248;2024-02-28T04:58:36;25;20;
63305;PMS5003;50735;52.060;1.248;2024-02-28T05:01:08;37;23;
63305;PMS5003;50735;52.060;1.248;2024-02-28T05:03:40;32;21;
63305;PMS5003;50735;52.060;1.248;2024-02-28T05:06:12;22;20;
63305;PMS5003;50735;52.060;1.248;2024-02-28T05:08:44;19;18;
63305;PMS5003;50735;52.060;1.248;2024-02-28T05:11:15;21;19;
63305;PMS5003;50735;52.060;1.248;2024-02-28T05:13:47;28;21;
63305;PMS5003;50735;52.060;1.248;2024-02-28T05:16:19;15;15;
63305;PMS5003;50735;52.060;1.248;2024-02-28T05:18:51;30;20;
63305;PMS5003;50735;52.060;1.248;2024-02-28T05:21:23;21;19;
63305;PMS5003;50735;52.060;1.248;2024-02-28T05:23:55;24;19;
63305;PMS5003;50735;52.060;1.248;2024-02-28T05:26:27;20;18;
63305;PMS5003;50735;52.060;1.248;2024-02-28T05:28:59;23;14;
63305;PMS5003;50735;52.060;1.248;2024-02-28T05:31:31;16;16;
63305;PMS5003;50735;52.060;1.248;2024-02-28T05:34:04;18;16;
63305;PMS5003;50735;52.060;1.248;2024-02-28T05:36:35;21;18;
63305;PMS5003;50735;52.060;1.248;2024-02-28T05:39:07;18;18;
63305;PMS5003;50735;52.060;1.248;2024-02-28T05:41:39;21;19;
63305;PMS5003;50735;52.060;1.248;2024-02-28T05:44:11;20;19;
63305;PMS5003;50735;52.060;1.248;2024-02-28T05:46:43;16;16;
63305;PMS5003;50735;52.060;1.248;2024-02-28T05:49:15;19;13;
63305;PMS5003;50735;52.060;1.248;2024-02-28T05:51:46;20;17;
63305;PMS5003;50735;52.060;1.248;2024-02-28T05:54:18;22;19;
63305;PMS5003;50735;52.060;1.248;2024-02-28T05:56:50;24;20;
63305;PMS5003;50735;52.060;1.248;2024-02-28T05:59:22;22;14;
63305;PMS5003;50735;52.060;1.248;2024-02-28T06:01:54;20;18;
63305;PMS5003;50735;52.060;1.248;2024-02-28T06:04:25;17;16;
63305;PMS5003;50735;52.060;1.248;2024-02-28T06:06:58;29;21;
63305;PMS5003;50735;52.060;1.248;2024-02-28T06:09:30;22;18;
63305;PMS5003;50735;52.060;1.248;2024-02-28T06:12:02;25;20;
63305;PMS5003;50735;52.060;1.248;2024-02-28T06:14:34;20;18;
63305;PMS5003;50735;52.060;1.248;2024-02-28T06:17:06;25;19;
63305;PMS5003;50735;52.060;1.248;2024-02-28T06:19:37;29;17;
63305;PMS5003;50735;52.060;1.248;2024-02-28T06:22:09;21;20;
63305;PMS5003;50735;52.060;1.248;2024-02-28T06:24:42;29;21;
63305;PMS5003;50735;52.060;1.248;2024-02-28T06:27:14;12;7;
63305;PMS5003;50735;52.060;1.248;2024-02-28T06:29:47;36;20;
63305;PMS5003;50735;52.060;1.248;2024-02-28T06:32:19;21;17;
63305;PMS5003;50735;52.060;1.248;2024-02-28T06:34:51;26;21;
63305;PMS5003;50735;52.060;1.248;2024-02-28T06:37:23;22;20;
63305;PMS5003;50735;52.060;1.248;2024-02-28T06:39:55;35;14;
63305;PMS5003;50735;52.060;1.248;2024-02-28T06:42:27;23;20;
63305;PMS5003;50735;52.060;1.248;2024-02-28T06:44:59;33;23;
63305;PMS5003;50735;52.060;1.248;2024-02-28T06:47:31;30;24;
63305;PMS5003;50735;52.060;1.248;2024-02-28T06:50:03;32;25;
63305;PMS5003;50735;52.060;1.248;2024-02-28T06:52:36;27;23;
63305;PMS5003;50735;52.060;1.248;2024-02-28T06:55:08;32;22;
63305;PMS5003;50735;52.060;1.248;2024-02-28T06:57:41;38;23;
63305;PMS5003;50735;52.060;1.248;2024-02-28T07:00:14;27;24;
63305;PMS5003;50735;52.060;1.248;2024-02-28T07:02:46;38;27;
63305;PMS5003;50735;52.060;1.248;2024-02-28T07:05:18;22;20;
63305;PMS5003;50735;52.060;1.248;2024-02-28T07:07:50;24;21;
63305;PMS5003;50735;52.060;1.248;2024-02-28T07:10:22;26;23;
63305;PMS5003;50735;52.060;1.248;2024-02-28T07:12:54;32;23;
63305;PMS5003;50735;52.060;1.248;2024-02-28T07:15:26;33;27;
63305;PMS5003;50735;52.060;1.248;2024-02-28T07:17:58;26;24;
63305;PMS5003;50735;52.060;1.248;2024-02-28T07:20:30;30;27;
63305;PMS5003;50735;52.060;1.248;2024-02-28T07:23:01;26;22;
63305;PMS5003;50735;52.060;1.248;2024-02-28T07:25:34;30;21;
63305;PMS5003;50735;52.060;1.248;2024-02-28T07:28:05;24;19;
63305;PMS5003;50735;52.060;1.248;2024-02-28T07:30:37;37;25;
63305;PMS5003;50735;52.060;1.248;2024-02-28T07:33:09;36;22;
63305;PMS5003;50735;52.060;1.248;2024-02-28T07:35:45;24;19;
63305;PMS5003;50735;52.060;1.248;2024-02-28T07:38:17;24;21;
63305;PMS5003;50735;52.060;1.248;2024-02-28T07:40:50;26;24;
63305;PMS5003;50735;52.060;1.248;2024-02-28T07:43:21;25;23;
63305;PMS5003;50735;52.060;1.248;2024-02-28T07:45:53;37;23;
63305;PMS5003;50735;52.060;1.248;2024-02-28T07:48:25;42;27;
63305;PMS5003;50735;52.060;1.248;2024-02-28T07:50:57;26;22;
63305;PMS5003;50735;52.060;1.248;2024-02-28T07:53:29;41;24;
63305;PMS5003;50735;52.060;1.248;2024-02-28T07:56:01;35;23;
63305;PMS5003;50735;52.060;1.248;2024-02-28T07:58:33;25;23;
63305;PMS5003;50735;52.060;1.248;2024-02-28T08:01:05;39;24;
63305;PMS5003;50735;52.060;1.248;2024-02-28T08:03:38;36;26;
63305;PMS5003;50735;52.060;1.248;2024-02-28T08:06:10;42;25;
63305;PMS5003;50735;52.060;1.248;2024-02-28T08:08:43;29;23;
63305;PMS5003;50735;52.060;1.248;2024-02-28T08:11:15;35;27;
63305;PMS5003;50735;52.060;1.248;2024-02-28T08:13:47;28;22;
63305;PMS5003;50735;52.060;1.248;2024-02-28T08:16:19;26;26;
63305;PMS5003;50735;52.060;1.248;2024-02-28T08:18:52;37;26;
63305;PMS5003;50735;52.060;1.248;2024-02-28T08:21:24;35;23;
63305;PMS5003;50735;52.060;1.248;2024-02-28T08:23:55;30;22;
63305;PMS5003;50735;52.060;1.248;2024-02-28T08:26:27;35;27;
63305;PMS5003;50735;52.060;1.248;2024-02-28T08:28:59;42;23;
63305;PMS5003;50735;52.060;1.248;2024-02-28T08:31:31;27;22;
63305;PMS5003;50735;52.060;1.248;2024-02-28T08:34:03;29;27;
63305;PMS5003;50735;52.060;1.248;2024-02-28T08:36:35;35;26;
63305;PMS5003;50735;52.060;1.248;2024-02-28T08:39:07;30;26;
63305;PMS5003;50735;52.060;1.248;2024-02-28T08:41:39;40;26;
63305;PMS5003;50735;52.060;1.248;2024-02-28T08:44:11;29;26;
63305;PMS5003;50735;52.060;1.248;2024-02-28T08:46:43;38;30;
63305;PMS5003;50735;52.060;1.248;2024-02-28T08:49:14;32;25;
63305;PMS5003;50735;52.060;1.248;2024-02-28T08:51:46;28;22;
63305;PMS5003;50735;52.060;1.248;2024-02-28T08:54:19;40;27;
63305;PMS5003;50735;52.060;1.248;2024-02-28T08:56:51;28;25;
63305;PMS5003;50735;52.060;1.248;2024-02-28T08:59:23;29;26;
63305;PMS5003;50735;52.060;1.248;2024-02-28T09:01:55;32;30;
63305;PMS5003;50735;52.060;1.248;2024-02-28T09:04:27;38;24;
63305;PMS5003;50735;52.060;1.248;2024-02-28T09:06:58;44;31;
63305;PMS5003;50735;52.060;1.248;2024-02-28T09:09:30;28;23;
63305;PMS5003;50735;52.060;1.248;2024-02-28T09:12:02;38;24;
63305;PMS5003;50735;52.060;1.248;2024-02-28T09:14:35;32;23;
63305;PMS5003;50735;52.060;1.248;2024-02-28T09:17:06;35;27;
63305;PMS5003;50735;52.060;1.248;2024-02-28T09:19:38;35;26;
63305;PMS5003;50735;52.060;1.248;2024-02-28T09:22:10;48;22;
63305;PMS5003;50735;52.060;1.248;2024-02-28T09:24:42;28;27;
63305;PMS5003;50735;52.060;1.248;2024-02-28T09:27:15;30;27;
63305;PMS5003;50735;52.060;1.248;2024-02-28T09:29:46;30;24;
63305;PMS5003;50735;52.060;1.248;2024-02-28T09:32:18;30;23;
63305;PMS5003;50735;52.060;1.248;2024-02-28T09:34:50;37;28;
63305;PMS5003;50735;52.060;1.248;2024-02-28T09:37:21;34;28;
63305;PMS5003;50735;52.060;1.248;2024-02-28T09:39:53;33;26;
63305;PMS5003;50735;52.060;1.248;2024-02-28T09:42:25;31;24;
63305;PMS5003;50735;52.060;1.248;2024-02-28T09:44:58;48;30;
63305;PMS5003;50735;52.060;1.248;2024-02-28T09:47:31;47;32;
63305;PMS5003;50735;52.060;1.248;2024-02-28T09:50:04;42;27;
63305;PMS5003;50735;52.060;1.248;2024-02-28T09:52:37;28;24;
63305;PMS5003;50735;52.060;1.248;2024-02-28T09:55:09;30;27;
63305;PMS5003;50735;52.060;1.248;2024-02-28T09:57:41;47;33;
63305;PMS5003;50735;52.060;1.248;2024-02-28T10:00:19;48;29;
63305;PMS5003;50735;52.060;1.248;2024-02-28T10:02:51;35;29;
63305;PMS5003;50735;52.060;1.248;2024-02-28T10:05:25;44;32;
63305;PMS5003;50735;52.060;1.248;2024-02-28T10:07:57;36;29;
63305;PMS5003;50735;52.060;1.248;2024-02-28T10:10:30;41;26;
63305;PMS5003;50735;52.060;1.248;2024-02-28T10:13:02;36;27;
63305;PMS5003;50735;52.060;1.248;2024-02-28T10:15:34;29;23;
63305;PMS5003;50735;52.060;1.248;2024-02-28T10:18:06;41;28;
63305;PMS5003;50735;52.060;1.248;2024-02-28T10:20:38;29;22;
63305;PMS5003;50735;52.060;1.248;2024-02-28T10:23:10;29;25;
63305;PMS5003;50735;52.060;1.248;2024-02-28T10:25:43;38;24;
63305;PMS5003;50735;52.060;1.248;2024-02-28T10:28:16;38;25;
63305;PMS5003;50735;52.060;1.248;2024-02-28T10:30:48;40;26;
63305;PMS5003;50735;52.060;1.248;2024-02-28T10:33:20;25;22;
63305;PMS5003;50735;52.060;1.248;2024-02-28T10:35:52;27;24;
63305;PMS5003;50735;52.060;1.248;2024-02-28T10:38:25;37;25;
63305;PMS5003;50735;52.060;1.248;2024-02-28T10:40:58;37;27;
63305;PMS5003;50735;52.060;1.248;2024-02-28T10:43:31;39;30;
63305;PMS5003;50735;52.060;1.248;2024-02-28T10:46:04;45;33;
63305;PMS5003;50735;52.060;1.248;2024-02-28T10:48:38;45;34;
63305;PMS5003;50735;52.060;1.248;2024-02-28T10:51:10;48;30;
63305;PMS5003;50735;52.060;1.248;2024-02-28T10:53:47;39;26;
63305;PMS5003;50735;52.060;1.248;2024-02-28T10:56:25;41;23;
63305;PMS5003;50735;52.060;1.248;2024-02-28T10:58:59;32;26;
63305;PMS5003;50735;52.060;1.248;2024-02-28T11:01:32;24;22;
63305;PMS5003;50735;52.060;1.248;2024-02-28T11:04:07;37;22;
63305;PMS5003;50735;52.060;1.248;2024-02-28T11:06:55;41;26;
63305;PMS5003;50735;52.060;1.248;2024-02-28T11:09:28;30;24;
63305;PMS5003;50735;52.060;1.248;2024-02-28T11:12:00;35;27;
63305;PMS5003;50735;52.060;1.248;2024-02-28T11:14:35;29;23;
63305;PMS5003;50735;52.060;1.248;2024-02-28T11:17:07;46;26;
63305;PMS5003;50735;52.060;1.248;2024-02-28T11:19:39;43;28;
63305;PMS5003;50735;52.060;1.248;2024-02-28T11:22:11;35;24;
63305;PMS5003;50735;52.060;1.248;2024-02-28T11:24:44;26;23;
63305;PMS5003;50735;52.060;1.248;2024-02-28T11:27:16;34;22;
63305;PMS5003;50735;52.060;1.248;2024-02-28T11:29:48;27;24;
63305;PMS5003;50735;52.060;1.248;2024-02-28T11:32:20;21;21;
63305;PMS5003;50735;52.060;1.248;2024-02-28T11:34:53;28;18;
63305;PMS5003;50735;52.060;1.248;2024-02-28T11:37:24;35;29;
63305;PMS5003;50735;52.060;1.248;2024-02-28T11:39:58;30;24;
63305;PMS5003;50735;52.060;1.248;2024-02-28T11:42:30;38;29;
63305;PMS5003;50735;52.060;1.248;2024-02-28T11:45:02;27;24;
63305;PMS5003;50735;52.060;1.248;2024-02-28T11:47:34;34;25;
63305;PMS5003;50735;52.060;1.248;2024-02-28T11:50:07;25;20;
63305;PMS5003;50735;52.060;1.248;2024-02-28T11:52:39;25;17;
63305;PMS5003;50735;52.060;1.248;2024-02-28T11:55:11;19;15;
63305;PMS5003;50735;52.060;1.248;2024-02-28T11:57:43;20;16;
63305;PMS5003;50735;52.060;1.248;2024-02-28T12:00:14;18;15;
63305;PMS5003;50735;52.060;1.248;2024-02-28T12:02:47;14;11;
63305;PMS5003;50735;52.060;1.248;2024-02-28T12:05:19;11;11;
63305;PMS5003;50735;52.060;1.248;2024-02-28T12:07:52;16;10;
63305;PMS5003;50735;52.060;1.248;2024-02-28T12:10:24;12;12;
63305;PMS5003;50735;52.060;1.248;2024-02-28T12:12:58;12;12;
63305;PMS5003;50735;52.060;1.248;2024-02-28T12:15:30;19;12;
63305;PMS5003;50735;52.060;1.248;2024-02-28T12:18:07;12;12;
63305;PMS5003;50735;52.060;1.248;2024-02-28T12:20:39;12;12;
63305;PMS5003;50735;52.060;1.248;2024-02-28T12:23:12;12;12;
63305;PMS5003;50735;52.060;1.248;2024-02-28T12:25:43;10;10;
63305;PMS5003;50735;52.060;1.248;2024-02-28T12:28:15;12;12;
63305;PMS5003;50735;52.060;1.248;2024-02-28T12:30:47;13;10;
63305;PMS5003;50735;52.060;1.248;2024-02-28T12:33:19;17;11;
63305;PMS5003;50735;52.060;1.248;2024-02-28T12:35:50;16;11;
63305;PMS5003;50735;52.060;1.248;2024-02-28T12:38:22;8;8;
63305;PMS5003;50735;52.060;1.248;2024-02-28T12:40:54;12;11;
63305;PMS5003;50735;52.060;1.248;2024-02-28T12:43:26;16;12;
63305;PMS5003;50735;52.060;1.248;2024-02-28T12:45:59;12;10;
63305;PMS5003;50735;52.060;1.248;2024-02-28T12:48:31;11;11;
63305;PMS5003;50735;52.060;1.248;2024-02-28T12:51:09;12;11;
63305;PMS5003;50735;52.060;1.248;2024-02-28T12:53:43;12;12;
63305;PMS5003;50735;52.060;1.248;2024-02-28T12:56:14;15;10;
63305;PMS5003;50735;52.060;1.248;2024-02-28T12:58:46;8;8;
63305;PMS5003;50735;52.060;1.248;2024-02-28T13:01:18;9;9;
63305;PMS5003;50735;52.060;1.248;2024-02-28T13:03:50;12;12;
63305;PMS5003;50735;52.060;1.248;2024-02-28T13:06:22;7;7;
63305;PMS5003;50735;52.060;1.248;2024-02-28T13:08:54;10;7;
63305;PMS5003;50735;52.060;1.248;2024-02-28T13:11:26;6;6;
63305;PMS5003;50735;52.060;1.248;2024-02-28T13:13:58;7;6;
63305;PMS5003;50735;52.060;1.248;2024-02-28T13:16:29;9;8;
63305;PMS5003;50735;52.060;1.248;2024-02-28T13:19:01;6;6;
63305;PMS5003;50735;52.060;1.248;2024-02-28T13:21:34;7;7;
63305;PMS5003;50735;52.060;1.248;2024-02-28T13:24:05;12;9;
63305;PMS5003;50735;52.060;1.248;2024-02-28T13:26:38;14;8;
63305;PMS5003;50735;52.060;1.248;2024-02-28T13:29:10;12;9;
63305;PMS5003;50735;52.060;1.248;2024-02-28T13:31:41;8;7;
63305;PMS5003;50735;52.060;1.248;2024-02-28T13:34:13;9;7;
63305;PMS5003;50735;52.060;1.248;2024-02-28T13:36:45;12;10;
63305;PMS5003;50735;52.060;1.248;2024-02-28T13:39:17;7;7;
63305;PMS5003;50735;52.060;1.248;2024-02-28T13:41:48;10;7;
63305;PMS5003;50735;52.060;1.248;2024-02-28T13:44:20;9;8;
63305;PMS5003;50735;52.060;1.248;2024-02-28T13:46:52;15;8;
63305;PMS5003;50735;52.060;1.248;2024-02-28T13:49:24;9;8;
63305;PMS5003;50735;52.060;1.248;2024-02-28T13:51:56;14;9;
63305;PMS5003;50735;52.060;1.248;2024-02-28T13:54:28;8;8;
63305;PMS5003;50735;52.060;1.248;2024-02-28T13:57:00;6;6;
63305;PMS5003;50735;52.060;1.248;2024-02-28T13:59:32;8;6;
63305;PMS5003;50735;52.060;1.248;2024-02-28T14:02:04;8;7;
63305;PMS5003;50735;52.060;1.248;2024-02-28T14:04:36;8;7;
63305;PMS5003;50735;52.060;1.248;2024-02-28T14:07:08;9;8;
63305;PMS5003;50735;52.060;1.248;2024-02-28T14:09:40;9;9;
63305;PMS5003;50735;52.060;1.248;2024-02-28T14:12:12;8;7;
63305;PMS5003;50735;52.060;1.248;2024-02-28T14:14:44;21;6;
63305;PMS5003;50735;52.060;1.248;2024-02-28T14:17:16;10;7;
63305;PMS5003;50735;52.060;1.248;2024-02-28T14:19:48;8;8;
63305;PMS5003;50735;52.060;1.248;2024-02-28T14:22:19;7;6;
63305;PMS5003;50735;52.060;1.248;2024-02-28T14:24:51;8;5;
63305;PMS5003;50735;52.060;1.248;2024-02-28T14:27:23;6;3;
63305;PMS5003;50735;52.060;1.248;2024-02-28T14:29:54;16;8;
63305;PMS5003;50735;52.060;1.248;2024-02-28T14:32:26;11;7;
63305;PMS5003;50735;52.060;1.248;2024-02-28T14:34:58;10;7;
63305;PMS5003;50735;52.060;1.248;2024-02-28T14:37:30;6;6;
63305;PMS5003;50735;52.060;1.248;2024-02-28T14:40:02;6;6;
63305;PMS5003;50735;52.060;1.248;2024-02-28T14:42:36;5;5;
63305;PMS5003;50735;52.060;1.248;2024-02-28T14:45:09;7;7;
63305;PMS5003;50735;52.060;1.248;2024-02-28T14:47:42;5;5;
63305;PMS5003;50735;52.060;1.248;2024-02-28T14:50:15;4;4;
63305;PMS5003;50735;52.060;1.248;2024-02-28T14:52:46;9;8;
63305;PMS5003;50735;52.060;1.248;2024-02-28T14:55:18;11;7;
63305;PMS5003;50735;52.060;1.248;2024-02-28T14:57:50;5;5;
63305;PMS5003;50735;52.060;1.248;2024-02-28T15:00:22;6;5;
63305;PMS5003;50735;52.060;1.248;2024-02-28T15:02:54;6;4;
63305;PMS5003;50735;52.060;1.248;2024-02-28T15:05:26;5;5;
63305;PMS5003;50735;52.060;1.248;2024-02-28T15:07:57;7;5;
63305;PMS5003;50735;52.060;1.248;2024-02-28T15:10:29;9;6;
63305;PMS5003;50735;52.060;1.248;2024-02-28T15:13:01;7;5;
63305;PMS5003;50735;52.060;1.248;2024-02-28T15:15:33;7;6;
63305;PMS5003;50735;52.060;1.248;2024-02-28T15:18:05;7;4;
63305;PMS5003;50735;52.060;1.248;2024-02-28T15:20:36;7;6;
63305;PMS5003;50735;52.060;1.248;2024-02-28T15:23:08;6;5;
63305;PMS5003;50735;52.060;1.248;2024-02-28T15:25:40;4;4;
63305;PMS5003;50735;52.060;1.248;2024-02-28T15:28:12;10;4;
63305;PMS5003;50735;52.060;1.248;2024-02-28T15:30:44;9;5;
63305;PMS5003;50735;52.060;1.248;2024-02-28T15:33:16;8;5;
63305;PMS5003;50735;52.060;1.248;2024-02-28T15:35:47;5;5;
63305;PMS5003;50735;52.060;1.248;2024-02-28T15:38:19;5;5;
63305;PMS5003;50735;52.060;1.248;2024-02-28T15:40:51;4;4;
63305;PMS5003;50735;52.060;1.248;2024-02-28T15:43:23;5;5;
63305;PMS5003;50735;52.060;1.248;2024-02-28T15:45:55;6;6;
63305;PMS5003;50735;52.060;1.248;2024-02-28T15:48:27;5;5;
63305;PMS5003;50735;52.060;1.248;2024-02-28T15:50:58;6;5;
63305;PMS5003;50735;52.060;1.248;2024-02-28T15:53:30;7;5;
63305;PMS5003;50735;52.060;1.248;2024-02-28T15:56:02;11;6;
63305;PMS5003;50735;52.060;1.248;2024-02-28T15:58:34;8;6;
63305;PMS5003;50735;52.060;1.248;2024-02-28T16:01:06;4;4;
63305;PMS5003;50735;52.060;1.248;2024-02-28T16:03:38;4;4;
63305;PMS5003;50735;52.060;1.248;2024-02-28T16:06:10;5;3;
63305;PMS5003;50735;52.060;1.248;2024-02-28T16:08:42;7;4;
63305;PMS5003;50735;52.060;1.248;2024-02-28T16:11:13;5;4;
63305;PMS5003;50735;52.060;1.248;2024-02-28T16:13:45;5;3;
63305;PMS5003;50735;52.060;1.248;2024-02-28T16:16:17;3;3;
63305;PMS5003;50735;52.060;1.248;2024-02-28T16:18:49;7;4;
63305;PMS5003;50735;52.060;1.248;2024-02-28T16:21:21;4;4;
63305;PMS5003;50735;52.060;1.248;2024-02-28T16:23:53;2;2;
63305;PMS5003;50735;52.060;1.248;2024-02-28T16:26:24;6;4;
63305;PMS5003;50735;52.060;1.248;2024-02-28T16:28:56;5;3;
63305;PMS5003;50735;52.060;1.248;2024-02-28T16:31:28;6;5;
63305;PMS5003;50735;52.060;1.248;2024-02-28T16:34:00;5;3;
63305;PMS5003;50735;52.060;1.248;2024-02-28T16:36:32;5;5;
63305;PMS5003;50735;52.060;1.248;2024-02-28T16:39:04;5;4;
63305;PMS5003;50735;52.060;1.248;2024-02-28T16:41:35;4;3;
63305;PMS5003;50735;52.060;1.248;2024-02-28T16:44:08;4;4;
63305;PMS5003;50735;52.060;1.248;2024-02-28T16:46:40;3;3;
63305;PMS5003;50735;52.060;1.248;2024-02-28T16:49:12;6;3;
63305;PMS5003;50735;52.060;1.248;2024-02-28T16:51:44;5;3;
63305;PMS5003;50735;52.060;1.248;2024-02-28T16:54:16;5;3;
63305;PMS5003;50735;52.060;1.248;2024-02-28T16:56:47;6;4;
63305;PMS5003;50735;52.060;1.248;2024-02-28T16:59:19;8;2;